sensor_id;sensor_type;location;lat;lon;timestamp;pressure;altitude;pressure_sealevel;temperature;humidity
29417;BME280;28421;51.030;4.006;2023-12-07T00:00:50;101942.13;;;2.37;100.00
29417;BME280;28421;51.030;4.006;2023-12-07T00:03:15;101984.88;;;2.61;100.00
29417;BME280;28421;51.030;4.006;2023-12-07T00:05:41;101956.63;;;2.45;100.00
29417;BME280;28421;51.030;4.006;2023-12-07T00:08:09;101970.88;;;2.59;100.00
29417;BME280;28421;51.030;4.006;2023-12-07T00:10:36;101921.41;;;2.28;100.00
29417;BME280;28421;51.030;4.006;2023-12-07T00:13:02;101924.56;;;2.34;100.00
29417;BME280;28421;51.030;4.006;2023-12-07T00:15:27;101931.13;;;2.43;100.00
29417;BME280;28421;51.030;4.006;2023-12-07T00:17:52;101906.84;;;2.35;100.00
29417;BME280;28421;51.030;4.006;2023-12-07T00:20:18;101931.59;;;2.49;100.00
29417;BME280;28421;51.030;4.006;2023-12-07T00:22:43;101936.53;;;2.41;100.00
29417;BME280;28421;51.030;4.006;2023-12-07T00:25:09;101906.00;;;2.34;100.00
29417;BME280;28421;51.030;4.006;2023-12-07T00:27:34;101937.94;;;2.47;100.00
29417;BME280;28421;51.030;4.006;2023-12-07T00:30:00;101965.56;;;2.59;100.00
29417;BME280;28421;51.030;4.006;2023-12-07T00:32:25;101912.94;;;2.37;100.00
29417;BME280;28421;51.030;4.006;2023-12-07T00:34:52;101894.69;;;2.31;100.00
29417;BME280;28421;51.030;4.006;2023-12-07T00:37:18;101938.50;;;2.52;100.00
29417;BME280;28421;51.030;4.006;2023-12-07T00:39:43;101928.47;;;2.43;100.00
29417;BME280;28421;51.030;4.006;2023-12-07T00:42:09;101937.88;;;2.63;100.00
29417;BME280;28421;51.030;4.006;2023-12-07T00:44:39;101952.56;;;2.68;100.00
29417;BME280;28421;51.030;4.006;2023-12-07T00:47:04;101959.31;;;2.74;100.00
29417;BME280;28421;51.030;4.006;2023-12-07T00:49:30;101935.09;;;2.64;100.00
29417;BME280;28421;51.030;4.006;2023-12-07T00:51:55;101947.53;;;2.64;100.00
29417;BME280;28421;51.030;4.006;2023-12-07T00:54:21;101919.66;;;2.57;100.00
29417;BME280;28421;51.030;4.006;2023-12-07T00:56:46;101919.19;;;2.50;100.00
29417;BME280;28421;51.030;4.006;2023-12-07T00:59:12;101932.06;;;2.56;100.00
29417;BME280;28421;51.030;4.006;2023-12-07T01:01:37;101919.84;;;2.54;100.00
29417;BME280;28421;51.030;4.006;2023-12-07T01:04:04;101936.25;;;2.60;100.00
29417;BME280;28421;51.030;4.006;2023-12-07T01:06:31;101932.75;;;2.60;100.00
29417;BME280;28421;51.030;4.006;2023-12-07T01:08:57;101924.09;;;2.56;100.00
29417;BME280;28421;51.030;4.006;2023-12-07T01:11:22;101923.38;;;2.54;100.00
29417;BME280;28421;51.030;4.006;2023-12-07T01:13:48;101928.84;;;2.65;100.00
29417;BME280;28421;51.030;4.006;2023-12-07T01:16:13;101928.56;;;2.56;100.00
29417;BME280;28421;51.030;4.006;2023-12-07T01:18:39;101943.56;;;2.71;100.00
29417;BME280;28421;51.030;4.006;2023-12-07T01:21:04;101895.19;;;2.37;100.00
29417;BME280;28421;51.030;4.006;2023-12-07T01:23:30;101932.84;;;2.72;100.00
29417;BME280;28421;51.030;4.006;2023-12-07T01:25:55;101883.38;;;2.57;100.00
29417;BME280;28421;51.030;4.006;2023-12-07T01:28:21;101905.91;;;2.79;100.00
29417;BME280;28421;51.030;4.006;2023-12-07T01:30:46;101881.34;;;2.61;100.00
29417;BME280;28421;51.030;4.006;2023-12-07T01:33:12;101941.47;;;3.05;100.00
29417;BME280;28421;51.030;4.006;2023-12-07T01:35:37;101897.72;;;2.82;100.00
29417;BME280;28421;51.030;4.006;2023-12-07T01:38:02;101930.25;;;3.14;100.00
29417;BME280;28421;51.030;4.006;2023-12-07T01:40:29;101886.34;;;2.94;100.00
29417;BME280;28421;51.030;4.006;2023-12-07T01:42:55;101883.25;;;2.87;100.00
29417;BME280;28421;51.030;4.006;2023-12-07T01:45:20;101904.00;;;2.81;100.00
29417;BME280;28421;51.030;4.006;2023-12-07T01:47:47;101935.66;;;3.12;100.00
29417;BME280;28421;51.030;4.006;2023-12-07T01:50:14;101902.50;;;2.91;100.00
29417;BME280;28421;51.030;4.006;2023-12-07T01:52:44;101886.06;;;2.84;100.00
29417;BME280;28421;51.030;4.006;2023-12-07T01:55:11;101890.63;;;2.96;100.00
29417;BME280;28421;51.030;4.006;2023-12-07T01:57:37;101923.22;;;3.13;100.00
29417;BME280;28421;51.030;4.006;2023-12-07T02:00:03;101925.69;;;3.16;100.00
29417;BME280;28421;51.030;4.006;2023-12-07T02:02:31;101928.16;;;3.19;100.00
29417;BME280;28421;51.030;4.006;2023-12-07T02:05:00;101883.91;;;2.91;100.00
29417;BME280;28421;51.030;4.006;2023-12-07T02:07:26;101929.81;;;3.34;100.00
29417;BME280;28421;51.030;4.006;2023-12-07T02:09:52;101927.50;;;3.15;100.00
29417;BME280;28421;51.030;4.006;2023-12-07T02:12:18;101890.78;;;3.08;100.00
29417;BME280;28421;51.030;4.006;2023-12-07T02:14:45;101873.41;;;3.02;100.00
29417;BME280;28421;51.030;4.006;2023-12-07T02:17:21;101927.41;;;3.17;100.00
29417;BME280;28421;51.030;4.006;2023-12-07T02:20:31;101931.47;;;3.22;100.00
29417;BME280;28421;51.030;4.006;2023-12-07T02:23:01;101943.63;;;3.12;100.00
29417;BME280;28421;51.030;4.006;2023-12-07T02:25:54;101943.53;;;3.14;100.00
29417;BME280;28421;51.030;4.006;2023-12-07T02:28:20;101895.19;;;2.80;100.00
29417;BME280;28421;51.030;4.006;2023-12-07T02:30:46;101922.00;;;2.90;100.00
29417;BME280;28421;51.030;4.006;2023-12-07T02:33:11;101951.50;;;3.14;100.00
29417;BME280;28421;51.030;4.006;2023-12-07T02:35:37;101935.00;;;3.09;100.00
29417;BME280;28421;51.030;4.006;2023-12-07T02:38:03;101930.81;;;3.19;100.00
29417;BME280;28421;51.030;4.006;2023-12-07T02:40:31;101912.97;;;3.21;100.00
29417;BME280;28421;51.030;4.006;2023-12-07T02:42:57;101944.25;;;3.30;100.00
29417;BME280;28421;51.030;4.006;2023-12-07T02:45:24;101944.44;;;3.41;100.00
29417;BME280;28421;51.030;4.006;2023-12-07T02:47:51;101942.63;;;3.42;100.00
29417;BME280;28421;51.030;4.006;2023-12-07T02:50:17;101895.09;;;3.23;100.00
29417;BME280;28421;51.030;4.006;2023-12-07T02:52:42;101890.56;;;3.11;100.00
29417;BME280;28421;51.030;4.006;2023-12-07T02:55:08;101920.91;;;3.35;100.00
29417;BME280;28421;51.030;4.006;2023-12-07T02:57:34;101923.13;;;3.29;100.00
29417;BME280;28421;51.030;4.006;2023-12-07T03:00:01;101886.69;;;3.02;100.00
29417;BME280;28421;51.030;4.006;2023-12-07T03:02:29;101892.78;;;3.04;100.00
29417;BME280;28421;51.030;4.006;2023-12-07T03:04:54;101866.41;;;3.01;100.00
29417;BME280;28421;51.030;4.006;2023-12-07T03:07:20;101891.47;;;3.11;100.00
29417;BME280;28421;51.030;4.006;2023-12-07T03:09:45;101878.19;;;2.97;100.00
29417;BME280;28421;51.030;4.006;2023-12-07T03:12:11;101889.84;;;3.09;100.00
29417;BME280;28421;51.030;4.006;2023-12-07T03:14:36;101904.22;;;3.19;100.00
29417;BME280;28421;51.030;4.006;2023-12-07T03:17:02;101874.31;;;2.88;100.00
29417;BME280;28421;51.030;4.006;2023-12-07T03:19:28;101909.28;;;3.09;100.00
29417;BME280;28421;51.030;4.006;2023-12-07T03:21:53;101921.53;;;3.12;100.00
29417;BME280;28421;51.030;4.006;2023-12-07T03:24:19;101913.56;;;3.12;100.00
29417;BME280;28421;51.030;4.006;2023-12-07T03:26:44;101945.13;;;3.31;100.00
29417;BME280;28421;51.030;4.006;2023-12-07T03:29:09;101932.25;;;3.10;100.00
29417;BME280;28421;51.030;4.006;2023-12-07T03:31:35;101951.94;;;3.35;100.00
29417;BME280;28421;51.030;4.006;2023-12-07T03:34:01;101905.88;;;3.07;100.00
29417;BME280;28421;51.030;4.006;2023-12-07T03:36:27;101953.28;;;3.28;100.00
29417;BME280;28421;51.030;4.006;2023-12-07T03:38:53;101953.38;;;3.26;100.00
29417;BME280;28421;51.030;4.006;2023-12-07T03:41:18;101920.47;;;3.14;100.00
29417;BME280;28421;51.030;4.006;2023-12-07T03:43:44;101937.75;;;3.21;100.00
29417;BME280;28421;51.030;4.006;2023-12-07T03:46:09;101940.69;;;3.17;100.00
29417;BME280;28421;51.030;4.006;2023-12-07T03:48:35;101920.22;;;3.05;100.00
29417;BME280;28421;51.030;4.006;2023-12-07T03:51:00;101951.88;;;3.36;100.00
29417;BME280;28421;51.030;4.006;2023-12-07T03:53:27;101920.38;;;3.16;100.00
29417;BME280;28421;51.030;4.006;2023-12-07T03:55:52;101900.94;;;3.15;100.00
29417;BME280;28421;51.030;4.006;2023-12-07T03:58:18;101924.31;;;3.37;100.00
29417;BME280;28421;51.030;4.006;2023-12-07T04:00:44;101935.69;;;3.39;100.00
29417;BME280;28421;51.030;4.006;2023-12-07T04:03:09;101904.41;;;3.30;100.00
29417;BME280;28421;51.030;4.006;2023-12-07T04:05:35;101926.25;;;3.48;100.00
29417;BME280;28421;51.030;4.006;2023-12-07T04:08:00;101883.19;;;3.16;100.00
29417;BME280;28421;51.030;4.006;2023-12-07T04:10:26;101925.47;;;3.33;100.00
29417;BME280;28421;51.030;4.006;2023-12-07T04:12:52;101903.75;;;3.27;100.00
29417;BME280;28421;51.030;4.006;2023-12-07T04:15:18;101904.41;;;3.30;100.00
29417;BME280;28421;51.030;4.006;2023-12-07T04:17:45;101917.88;;;3.27;100.00
29417;BME280;28421;51.030;4.006;2023-12-07T04:20:11;101890.31;;;3.15;100.00
29417;BME280;28421;51.030;4.006;2023-12-07T04:22:37;101899.78;;;3.19;100.00
29417;BME280;28421;51.030;4.006;2023-12-07T04:25:03;101902.59;;;3.31;100.00
29417;BME280;28421;51.030;4.006;2023-12-07T04:27:28;101904.94;;;3.35;100.00
29417;BME280;28421;51.030;4.006;2023-12-07T04:29:54;101882.03;;;3.20;100.00
29417;BME280;28421;51.030;4.006;2023-12-07T04:32:19;101908.06;;;3.42;100.00
29417;BME280;28421;51.030;4.006;2023-12-07T04:34:45;101909.78;;;3.43;100.00
29417;BME280;28421;51.030;4.006;2023-12-07T04:37:10;101843.72;;;3.10;100.00
29417;BME280;28421;51.030;4.006;2023-12-07T04:39:36;101903.78;;;3.39;100.00
29417;BME280;28421;51.030;4.006;2023-12-07T04:42:01;101872.44;;;3.17;100.00
29417;BME280;28421;51.030;4.006;2023-12-07T04:44:27;101874.50;;;3.27;100.00
29417;BME280;28421;51.030;4.006;2023-12-07T04:46:53;101850.09;;;3.07;100.00
29417;BME280;28421;51.030;4.006;2023-12-07T04:49:19;101853.59;;;3.08;100.00
29417;BME280;28421;51.030;4.006;2023-12-07T04:51:44;101850.81;;;3.09;100.00
29417;BME280;28421;51.030;4.006;2023-12-07T04:54:14;101884.94;;;3.30;100.00
29417;BME280;28421;51.030;4.006;2023-12-07T04:56:41;101873.53;;;3.28;100.00
29417;BME280;28421;51.030;4.006;2023-12-07T04:59:08;101883.69;;;3.35;100.00
29417;BME280;28421;51.030;4.006;2023-12-07T05:01:37;101881.69;;;3.39;100.00
29417;BME280;28421;51.030;4.006;2023-12-07T05:04:04;101875.50;;;3.38;100.00
29417;BME280;28421;51.030;4.006;2023-12-07T05:06:31;101842.25;;;3.18;100.00
29417;BME280;28421;51.030;4.006;2023-12-07T05:08:57;101828.97;;;3.18;100.00
29417;BME280;28421;51.030;4.006;2023-12-07T05:11:22;101850.22;;;3.18;100.00
29417;BME280;28421;51.030;4.006;2023-12-07T05:13:48;101848.53;;;3.17;100.00
29417;BME280;28421;51.030;4.006;2023-12-07T05:16:13;101882.28;;;3.30;100.00
29417;BME280;28421;51.030;4.006;2023-12-07T05:18:39;101879.16;;;3.23;100.00
29417;BME280;28421;51.030;4.006;2023-12-07T05:21:05;101859.00;;;3.06;100.00
29417;BME280;28421;51.030;4.006;2023-12-07T05:23:30;101859.84;;;3.07;100.00
29417;BME280;28421;51.030;4.006;2023-12-07T05:25:56;101871.53;;;3.04;100.00
29417;BME280;28421;51.030;4.006;2023-12-07T05:28:22;101827.84;;;2.81;100.00
29417;BME280;28421;51.030;4.006;2023-12-07T05:30:48;101836.88;;;2.79;100.00
29417;BME280;28421;51.030;4.006;2023-12-07T05:33:14;101837.00;;;2.90;100.00
29417;BME280;28421;51.030;4.006;2023-12-07T05:35:40;101834.00;;;2.82;100.00
29417;BME280;28421;51.030;4.006;2023-12-07T05:38:05;101822.94;;;2.75;100.00
29417;BME280;28421;51.030;4.006;2023-12-07T05:40:30;101828.69;;;2.82;100.00
29417;BME280;28421;51.030;4.006;2023-12-07T05:42:56;101810.53;;;2.61;100.00
29417;BME280;28421;51.030;4.006;2023-12-07T05:45:22;101797.44;;;2.58;100.00
29417;BME280;28421;51.030;4.006;2023-12-07T05:47:47;101770.16;;;2.42;100.00
29417;BME280;28421;51.030;4.006;2023-12-07T05:50:13;101786.47;;;2.50;100.00
29417;BME280;28421;51.030;4.006;2023-12-07T05:52:38;101796.78;;;2.55;100.00
29417;BME280;28421;51.030;4.006;2023-12-07T05:55:05;101779.53;;;2.47;100.00
29417;BME280;28421;51.030;4.006;2023-12-07T05:57:30;101799.06;;;2.46;100.00
29417;BME280;28421;51.030;4.006;2023-12-07T05:59:56;101839.59;;;2.77;100.00
29417;BME280;28421;51.030;4.006;2023-12-07T06:02:21;101812.00;;;2.65;100.00
29417;BME280;28421;51.030;4.006;2023-12-07T06:04:47;101800.78;;;2.47;100.00
29417;BME280;28421;51.030;4.006;2023-12-07T06:07:12;101827.03;;;2.66;100.00
29417;BME280;28421;51.030;4.006;2023-12-07T06:09:38;101818.00;;;2.69;100.00
29417;BME280;28421;51.030;4.006;2023-12-07T06:12:03;101807.84;;;2.76;100.00
29417;BME280;28421;51.030;4.006;2023-12-07T06:14:29;101836.56;;;2.83;100.00
29417;BME280;28421;51.030;4.006;2023-12-07T06:16:55;101828.78;;;2.80;100.00
29417;BME280;28421;51.030;4.006;2023-12-07T06:19:20;101835.88;;;2.94;100.00
29417;BME280;28421;51.030;4.006;2023-12-07T06:21:46;101802.91;;;2.69;100.00
29417;BME280;28421;51.030;4.006;2023-12-07T06:24:12;101789.00;;;2.66;100.00
29417;BME280;28421;51.030;4.006;2023-12-07T06:26:39;101800.34;;;2.82;100.00
29417;BME280;28421;51.030;4.006;2023-12-07T06:29:05;101780.56;;;2.59;100.00
29417;BME280;28421;51.030;4.006;2023-12-07T06:31:33;101830.38;;;2.97;100.00
29417;BME280;28421;51.030;4.006;2023-12-07T06:33:59;101834.84;;;2.96;100.00
29417;BME280;28421;51.030;4.006;2023-12-07T06:36:26;101791.28;;;2.58;100.00
29417;BME280;28421;51.030;4.006;2023-12-07T06:38:52;101784.75;;;2.49;100.00
29417;BME280;28421;51.030;4.006;2023-12-07T06:41:20;101779.16;;;2.39;100.00
29417;BME280;28421;51.030;4.006;2023-12-07T06:43:46;101791.78;;;2.50;100.00
29417;BME280;28421;51.030;4.006;2023-12-07T06:46:12;101826.91;;;2.68;100.00
29417;BME280;28421;51.030;4.006;2023-12-07T06:48:38;101817.91;;;2.70;100.00
29417;BME280;28421;51.030;4.006;2023-12-07T06:51:04;101815.81;;;2.76;100.00
29417;BME280;28421;51.030;4.006;2023-12-07T06:53:30;101833.91;;;2.83;100.00
29417;BME280;28421;51.030;4.006;2023-12-07T06:55:57;101806.34;;;2.71;100.00
29417;BME280;28421;51.030;4.006;2023-12-07T06:58:22;101793.34;;;2.67;100.00
29417;BME280;28421;51.030;4.006;2023-12-07T07:00:48;101838.53;;;2.94;100.00
29417;BME280;28421;51.030;4.006;2023-12-07T07:03:14;101800.25;;;2.69;100.00
29417;BME280;28421;51.030;4.006;2023-12-07T07:05:40;101784.72;;;2.63;100.00
29417;BME280;28421;51.030;4.006;2023-12-07T07:08:05;101807.00;;;2.75;100.00
29417;BME280;28421;51.030;4.006;2023-12-07T07:10:33;101785.75;;;2.75;100.00
29417;BME280;28421;51.030;4.006;2023-12-07T07:13:03;101805.56;;;2.84;100.00
29417;BME280;28421;51.030;4.006;2023-12-07T07:15:34;101808.88;;;2.87;100.00
29417;BME280;28421;51.030;4.006;2023-12-07T07:18:01;101823.00;;;2.88;100.00
29417;BME280;28421;51.030;4.006;2023-12-07T07:20:26;101823.53;;;2.93;100.00
29417;BME280;28421;51.030;4.006;2023-12-07T07:22:52;101820.78;;;2.94;100.00
29417;BME280;28421;51.030;4.006;2023-12-07T07:25:17;101800.78;;;2.89;100.00
29417;BME280;28421;51.030;4.006;2023-12-07T07:27:45;101827.72;;;2.97;100.00
29417;BME280;28421;51.030;4.006;2023-12-07T07:30:11;101828.00;;;2.92;100.00
29417;BME280;28421;51.030;4.006;2023-12-07T07:32:37;101782.63;;;2.68;100.00
29417;BME280;28421;51.030;4.006;2023-12-07T07:35:03;101806.81;;;3.05;100.00
29417;BME280;28421;51.030;4.006;2023-12-07T07:37:28;101780.94;;;2.67;100.00
29417;BME280;28421;51.030;4.006;2023-12-07T07:39:54;101807.91;;;2.88;100.00
29417;BME280;28421;51.030;4.006;2023-12-07T07:42:19;101809.00;;;2.71;100.00
29417;BME280;28421;51.030;4.006;2023-12-07T07:44:45;101781.66;;;2.69;100.00
29417;BME280;28421;51.030;4.006;2023-12-07T07:47:10;101801.28;;;2.81;100.00
29417;BME280;28421;51.030;4.006;2023-12-07T07:49:35;101772.59;;;2.59;100.00
29417;BME280;28421;51.030;4.006;2023-12-07T07:52:01;101797.59;;;2.69;100.00
29417;BME280;28421;51.030;4.006;2023-12-07T07:54:26;101783.41;;;2.56;100.00
29417;BME280;28421;51.030;4.006;2023-12-07T07:56:52;101818.00;;;2.69;100.00
29417;BME280;28421;51.030;4.006;2023-12-07T07:59:17;101771.28;;;2.52;100.00
29417;BME280;28421;51.030;4.006;2023-12-07T08:01:45;101778.94;;;2.57;100.00
29417;BME280;28421;51.030;4.006;2023-12-07T08:04:12;101759.81;;;2.52;100.00
29417;BME280;28421;51.030;4.006;2023-12-07T08:06:37;101805.56;;;2.84;100.00
29417;BME280;28421;51.030;4.006;2023-12-07T08:09:03;101804.53;;;2.72;100.00
29417;BME280;28421;51.030;4.006;2023-12-07T08:11:28;101807.97;;;2.60;100.00
29417;BME280;28421;51.030;4.006;2023-12-07T08:13:54;101797.03;;;2.79;100.00
29417;BME280;28421;51.030;4.006;2023-12-07T08:16:20;101751.00;;;2.51;100.00
29417;BME280;28421;51.030;4.006;2023-12-07T08:18:45;101805.91;;;2.92;100.00
29417;BME280;28421;51.030;4.006;2023-12-07T08:21:24;101766.31;;;2.74;100.00
29417;BME280;28421;51.030;4.006;2023-12-07T08:23:50;101805.13;;;3.04;100.00
29417;BME280;28421;51.030;4.006;2023-12-07T08:26:17;101803.47;;;3.16;100.00
29417;BME280;28421;51.030;4.006;2023-12-07T08:28:43;101766.97;;;3.05;100.00
29417;BME280;28421;51.030;4.006;2023-12-07T08:31:09;101765.50;;;3.14;100.00
29417;BME280;28421;51.030;4.006;2023-12-07T08:33:35;101791.59;;;3.34;100.00
29417;BME280;28421;51.030;4.006;2023-12-07T08:36:02;101797.88;;;3.33;100.00
29417;BME280;28421;51.030;4.006;2023-12-07T08:38:27;101754.88;;;3.14;100.00
29417;BME280;28421;51.030;4.006;2023-12-07T08:40:53;101776.50;;;3.35;100.00
29417;BME280;28421;51.030;4.006;2023-12-07T08:43:22;101798.09;;;3.43;100.00
29417;BME280;28421;51.030;4.006;2023-12-07T08:45:49;101781.63;;;3.38;100.00
29417;BME280;28421;51.030;4.006;2023-12-07T08:48:15;101780.34;;;3.43;100.00
29417;BME280;28421;51.030;4.006;2023-12-07T08:50:40;101751.13;;;3.04;100.00
29417;BME280;28421;51.030;4.006;2023-12-07T08:53:06;101740.00;;;3.11;100.00
29417;BME280;28421;51.030;4.006;2023-12-07T08:55:31;101757.69;;;3.38;100.00
29417;BME280;28421;51.030;4.006;2023-12-07T08:57:57;101761.03;;;3.54;100.00
29417;BME280;28421;51.030;4.006;2023-12-07T09:00:22;101767.00;;;3.70;100.00
29417;BME280;28421;51.030;4.006;2023-12-07T09:02:50;101741.66;;;3.65;100.00
29417;BME280;28421;51.030;4.006;2023-12-07T09:05:17;101748.78;;;3.64;100.00
29417;BME280;28421;51.030;4.006;2023-12-07T09:07:44;101779.13;;;4.00;100.00
29417;BME280;28421;51.030;4.006;2023-12-07T09:10:10;101780.31;;;4.09;100.00
29417;BME280;28421;51.030;4.006;2023-12-07T09:12:36;101741.38;;;3.82;100.00
29417;BME280;28421;51.030;4.006;2023-12-07T09:15:03;101729.66;;;3.72;100.00
29417;BME280;28421;51.030;4.006;2023-12-07T09:17:29;101772.97;;;3.99;100.00
29417;BME280;28421;51.030;4.006;2023-12-07T09:19:55;101746.25;;;3.88;100.00
29417;BME280;28421;51.030;4.006;2023-12-07T09:22:21;101760.50;;;4.00;100.00
29417;BME280;28421;51.030;4.006;2023-12-07T09:24:46;101741.13;;;3.85;100.00
29417;BME280;28421;51.030;4.006;2023-12-07T09:27:13;101750.41;;;3.92;100.00
29417;BME280;28421;51.030;4.006;2023-12-07T09:29:39;101754.75;;;4.06;100.00
29417;BME280;28421;51.030;4.006;2023-12-07T09:32:06;101726.13;;;3.97;100.00
29417;BME280;28421;51.030;4.006;2023-12-07T09:34:32;101732.28;;;4.10;100.00
29417;BME280;28421;51.030;4.006;2023-12-07T09:37:10;101719.22;;;4.07;100.00
29417;BME280;28421;51.030;4.006;2023-12-07T09:39:36;101722.19;;;4.15;100.00
29417;BME280;28421;51.030;4.006;2023-12-07T09:42:02;101716.94;;;4.14;100.00
29417;BME280;28421;51.030;4.006;2023-12-07T09:44:28;101729.09;;;4.18;100.00
29417;BME280;28421;51.030;4.006;2023-12-07T09:46:54;101699.44;;;3.98;100.00
29417;BME280;28421;51.030;4.006;2023-12-07T09:49:20;101700.13;;;4.13;100.00
29417;BME280;28421;51.030;4.006;2023-12-07T09:51:46;101698.44;;;4.12;100.00
29417;BME280;28421;51.030;4.006;2023-12-07T09:54:12;101689.06;;;4.19;100.00
29417;BME280;28421;51.030;4.006;2023-12-07T09:56:38;101684.75;;;4.30;100.00
29417;BME280;28421;51.030;4.006;2023-12-07T09:59:05;101661.09;;;4.38;100.00
29417;BME280;28421;51.030;4.006;2023-12-07T10:01:32;101664.16;;;4.20;100.00
29417;BME280;28421;51.030;4.006;2023-12-07T10:04:19;101679.09;;;4.34;100.00
29417;BME280;28421;51.030;4.006;2023-12-07T10:06:45;101683.78;;;4.31;100.00
29417;BME280;28421;51.030;4.006;2023-12-07T10:09:11;101672.84;;;4.22;100.00
29417;BME280;28421;51.030;4.006;2023-12-07T10:11:38;101693.38;;;4.33;100.00
29417;BME280;28421;51.030;4.006;2023-12-07T10:14:06;101680.72;;;4.37;100.00
29417;BME280;28421;51.030;4.006;2023-12-07T10:16:33;101660.69;;;4.31;100.00
29417;BME280;28421;51.030;4.006;2023-12-07T10:19:14;101688.47;;;4.64;100.00
29417;BME280;28421;51.030;4.006;2023-12-07T10:21:41;101641.28;;;4.42;100.00
29417;BME280;28421;51.030;4.006;2023-12-07T10:24:09;101641.34;;;4.53;100.00
29417;BME280;28421;51.030;4.006;2023-12-07T10:26:34;101637.44;;;4.46;100.00
29417;BME280;28421;51.030;4.006;2023-12-07T10:29:04;101639.19;;;4.58;100.00
29417;BME280;28421;51.030;4.006;2023-12-07T10:31:31;101640.19;;;4.68;100.00
29417;BME280;28421;51.030;4.006;2023-12-07T10:33:56;101657.25;;;4.66;100.00
29417;BME280;28421;51.030;4.006;2023-12-07T10:36:22;101621.72;;;4.54;100.00
29417;BME280;28421;51.030;4.006;2023-12-07T10:38:47;101652.78;;;4.66;100.00
29417;BME280;28421;51.030;4.006;2023-12-07T10:41:21;101630.50;;;4.67;100.00
29417;BME280;28421;51.030;4.006;2023-12-07T10:43:54;101627.75;;;4.45;100.00
29417;BME280;28421;51.030;4.006;2023-12-07T10:46:22;101643.78;;;4.56;100.00
29417;BME280;28421;51.030;4.006;2023-12-07T10:48:52;101624.88;;;4.48;100.00
29417;BME280;28421;51.030;4.006;2023-12-07T10:51:59;101641.34;;;4.53;100.00
29417;BME280;28421;51.030;4.006;2023-12-07T10:54:33;101619.06;;;4.54;100.00
29417;BME280;28421;51.030;4.006;2023-12-07T10:57:03;101627.41;;;4.49;100.00
29417;BME280;28421;51.030;4.006;2023-12-07T10:59:32;101597.41;;;4.35;100.00
29417;BME280;28421;51.030;4.006;2023-12-07T11:01:58;101585.16;;;4.45;100.00
29417;BME280;28421;51.030;4.006;2023-12-07T11:04:24;101582.75;;;4.53;100.00
29417;BME280;28421;51.030;4.006;2023-12-07T11:06:53;101614.00;;;4.86;100.00
29417;BME280;28421;51.030;4.006;2023-12-07T11:09:27;101607.34;;;4.92;100.00
29417;BME280;28421;51.030;4.006;2023-12-07T11:11:59;101594.06;;;5.03;100.00
29417;BME280;28421;51.030;4.006;2023-12-07T11:14:26;101565.81;;;4.89;100.00
29417;BME280;28421;51.030;4.006;2023-12-07T11:16:52;101554.44;;;5.10;100.00
29417;BME280;28421;51.030;4.006;2023-12-07T11:22:02;101569.34;;;5.35;100.00
29417;BME280;28421;51.030;4.006;2023-12-07T11:24:28;101572.53;;;5.40;100.00
29417;BME280;28421;51.030;4.006;2023-12-07T11:26:54;101543.06;;;5.30;100.00
29417;BME280;28421;51.030;4.006;2023-12-07T11:29:31;101562.09;;;5.37;100.00
29417;BME280;28421;51.030;4.006;2023-12-07T11:32:04;101553.25;;;5.36;100.00
29417;BME280;28421;51.030;4.006;2023-12-07T11:34:41;101552.50;;;5.45;100.00
29417;BME280;28421;51.030;4.006;2023-12-07T11:37:11;101554.09;;;5.37;100.00
29417;BME280;28421;51.030;4.006;2023-12-07T11:39:40;101558.44;;;5.38;100.00
29417;BME280;28421;51.030;4.006;2023-12-07T11:42:10;101540.03;;;5.35;100.00
29417;BME280;28421;51.030;4.006;2023-12-07T11:44:40;101505.00;;;5.17;100.00
29417;BME280;28421;51.030;4.006;2023-12-07T11:47:06;101554.44;;;5.55;100.00
29417;BME280;28421;51.030;4.006;2023-12-07T11:49:32;101515.91;;;5.36;100.00
29417;BME280;28421;51.030;4.006;2023-12-07T11:51:59;101503.91;;;5.53;100.00
29417;BME280;28421;51.030;4.006;2023-12-07T11:54:27;101505.44;;;5.56;100.00
29417;BME280;28421;51.030;4.006;2023-12-07T11:56:56;101492.63;;;5.61;100.00
29417;BME280;28421;51.030;4.006;2023-12-07T11:59:23;101484.13;;;5.56;100.00
29417;BME280;28421;51.030;4.006;2023-12-07T12:01:51;101506.13;;;5.80;100.00
29417;BME280;28421;51.030;4.006;2023-12-07T12:04:17;101506.03;;;5.82;100.00
29417;BME280;28421;51.030;4.006;2023-12-07T12:06:43;101469.38;;;5.84;100.00
29417;BME280;28421;51.030;4.006;2023-12-07T12:09:12;101472.28;;;5.92;100.00
29417;BME280;28421;51.030;4.006;2023-12-07T12:11:44;101434.47;;;5.76;100.00
29417;BME280;28421;51.030;4.006;2023-12-07T12:14:09;101458.06;;;5.91;100.00
29417;BME280;28421;51.030;4.006;2023-12-07T12:16:35;101433.84;;;5.83;100.00
29417;BME280;28421;51.030;4.006;2023-12-07T12:19:00;101437.56;;;6.03;100.00
29417;BME280;28421;51.030;4.006;2023-12-07T12:21:26;101434.72;;;6.16;100.00
29417;BME280;28421;51.030;4.006;2023-12-07T12:23:52;101429.31;;;6.27;100.00
29417;BME280;28421;51.030;4.006;2023-12-07T12:26:17;101390.31;;;6.15;100.00
29417;BME280;28421;51.030;4.006;2023-12-07T12:28:44;101391.72;;;5.98;100.00
29417;BME280;28421;51.030;4.006;2023-12-07T12:31:10;101419.44;;;6.18;100.00
29417;BME280;28421;51.030;4.006;2023-12-07T12:33:37;101404.69;;;6.03;100.00
29417;BME280;28421;51.030;4.006;2023-12-07T12:36:05;101403.00;;;6.02;100.00
29417;BME280;28421;51.030;4.006;2023-12-07T12:38:33;101393.19;;;5.91;100.00
29417;BME280;28421;51.030;4.006;2023-12-07T12:40:58;101374.28;;;5.83;100.00
29417;BME280;28421;51.030;4.006;2023-12-07T12:43:24;101385.31;;;5.89;100.00
29417;BME280;28421;51.030;4.006;2023-12-07T12:45:49;101410.91;;;5.92;100.00
29417;BME280;28421;51.030;4.006;2023-12-07T12:48:15;101387.63;;;5.83;100.00
29417;BME280;28421;51.030;4.006;2023-12-07T12:50:41;101369.50;;;5.77;99.91